sensor_id;sensor_type;location;lat;lon;timestamp;P1;durP1;ratioP1;P2;durP2;ratioP2
8281;SDS011;25606;42.686;23.136;2022-11-12T00:00:19;23.33;;;15.37;;
8281;SDS011;25606;42.686;23.136;2022-11-12T00:02:46;23.07;;;15.37;;
8281;SDS011;25606;42.686;23.136;2022-11-12T00:05:13;25.67;;;16.00;;
8281;SDS011;25606;42.686;23.136;2022-11-12T00:07:41;22.37;;;15.10;;
8281;SDS011;25606;42.686;23.136;2022-11-12T00:10:08;23.37;;;16.80;;
8281;SDS011;25606;42.686;23.136;2022-11-12T00:12:36;23.80;;;15.77;;
8281;SDS011;25606;42.686;23.136;2022-11-12T00:15:05;24.07;;;16.17;;
8281;SDS011;25606;42.686;23.136;2022-11-12T00:17:33;23.43;;;15.33;;
8281;SDS011;25606;42.686;23.136;2022-11-12T00:20:00;22.60;;;15.50;;
8281;SDS011;25606;42.686;23.136;2022-11-12T00:22:27;24.10;;;15.60;;
8281;SDS011;25606;42.686;23.136;2022-11-12T00:24:55;23.07;;;15.10;;
8281;SDS011;25606;42.686;23.136;2022-11-12T00:27:22;23.20;;;15.10;;
8281;SDS011;25606;42.686;23.136;2022-11-12T00:29:50;20.83;;;14.83;;
8281;SDS011;25606;42.686;23.136;2022-11-12T00:32:18;20.50;;;14.83;;
8281;SDS011;25606;42.686;23.136;2022-11-12T00:34:46;20.67;;;14.63;;
8281;SDS011;25606;42.686;23.136;2022-11-12T00:37:13;22.70;;;15.03;;
8281;SDS011;25606;42.686;23.136;2022-11-12T00:39:41;21.03;;;13.00;;
8281;SDS011;25606;42.686;23.136;2022-11-12T00:42:08;19.43;;;12.60;;
8281;SDS011;25606;42.686;23.136;2022-11-12T00:44:36;18.83;;;12.53;;
8281;SDS011;25606;42.686;23.136;2022-11-12T00:47:03;17.43;;;12.00;;
8281;SDS011;25606;42.686;23.136;2022-11-12T00:49:32;18.57;;;12.87;;
8281;SDS011;25606;42.686;23.136;2022-11-12T00:51:59;20.23;;;13.10;;
8281;SDS011;25606;42.686;23.136;2022-11-12T00:54:27;15.50;;;12.40;;
8281;SDS011;25606;42.686;23.136;2022-11-12T00:56:54;20.70;;;13.83;;
8281;SDS011;25606;42.686;23.136;2022-11-12T00:59:21;19.97;;;13.37;;
8281;SDS011;25606;42.686;23.136;2022-11-12T01:01:49;22.30;;;13.97;;
8281;SDS011;25606;42.686;23.136;2022-11-12T01:04:16;22.70;;;14.80;;
8281;SDS011;25606;42.686;23.136;2022-11-12T01:06:45;19.57;;;13.73;;
8281;SDS011;25606;42.686;23.136;2022-11-12T01:09:12;21.77;;;13.70;;
8281;SDS011;25606;42.686;23.136;2022-11-12T01:11:40;19.73;;;13.50;;
8281;SDS011;25606;42.686;23.136;2022-11-12T01:14:07;18.73;;;12.10;;
8281;SDS011;25606;42.686;23.136;2022-11-12T01:16:35;16.27;;;11.97;;
8281;SDS011;25606;42.686;23.136;2022-11-12T01:19:04;18.23;;;11.90;;
8281;SDS011;25606;42.686;23.136;2022-11-12T01:21:32;17.33;;;12.50;;
8281;SDS011;25606;42.686;23.136;2022-11-12T01:24:04;16.20;;;11.47;;
8281;SDS011;25606;42.686;23.136;2022-11-12T01:26:32;18.17;;;11.70;;
8281;SDS011;25606;42.686;23.136;2022-11-12T01:29:00;17.13;;;11.20;;
8281;SDS011;25606;42.686;23.136;2022-11-12T01:31:28;15.97;;;11.00;;
8281;SDS011;25606;42.686;23.136;2022-11-12T01:33:56;16.43;;;10.47;;
8281;SDS011;25606;42.686;23.136;2022-11-12T01:36:24;17.83;;;11.53;;
8281;SDS011;25606;42.686;23.136;2022-11-12T01:38:52;17.83;;;12.13;;
8281;SDS011;25606;42.686;23.136;2022-11-12T01:41:21;15.73;;;11.60;;
8281;SDS011;25606;42.686;23.136;2022-11-12T01:46:31;15.13;;;9.97;;
8281;SDS011;25606;42.686;23.136;2022-11-12T01:49:01;15.97;;;11.13;;
8281;SDS011;25606;42.686;23.136;2022-11-12T01:51:30;14.40;;;10.93;;
8281;SDS011;25606;42.686;23.136;2022-11-12T01:53:59;16.40;;;10.37;;
8281;SDS011;25606;42.686;23.136;2022-11-12T01:56:29;18.37;;;11.67;;
8281;SDS011;25606;42.686;23.136;2022-11-12T01:58:58;14.87;;;10.53;;
8281;SDS011;25606;42.686;23.136;2022-11-12T02:01:27;16.17;;;10.97;;
8281;SDS011;25606;42.686;23.136;2022-11-12T02:03:54;16.67;;;10.77;;
8281;SDS011;25606;42.686;23.136;2022-11-12T02:06:22;14.57;;;9.70;;
8281;SDS011;25606;42.686;23.136;2022-11-12T02:08:49;15.87;;;10.63;;
8281;SDS011;25606;42.686;23.136;2022-11-12T02:11:18;16.17;;;10.57;;
8281;SDS011;25606;42.686;23.136;2022-11-12T02:13:48;15.10;;;10.70;;
8281;SDS011;25606;42.686;23.136;2022-11-12T02:16:22;13.87;;;9.97;;
8281;SDS011;25606;42.686;23.136;2022-11-12T02:18:49;13.37;;;9.93;;
8281;SDS011;25606;42.686;23.136;2022-11-12T02:21:19;14.83;;;10.67;;
8281;SDS011;25606;42.686;23.136;2022-11-12T02:23:46;17.10;;;10.97;;
8281;SDS011;25606;42.686;23.136;2022-11-12T02:26:23;16.73;;;10.17;;
8281;SDS011;25606;42.686;23.136;2022-11-12T02:28:50;17.43;;;11.50;;
8281;SDS011;25606;42.686;23.136;2022-11-12T02:31:18;16.87;;;11.47;;
8281;SDS011;25606;42.686;23.136;2022-11-12T02:33:45;13.97;;;10.17;;
8281;SDS011;25606;42.686;23.136;2022-11-12T02:36:13;14.87;;;10.23;;
8281;SDS011;25606;42.686;23.136;2022-11-12T02:38:41;12.80;;;10.17;;
8281;SDS011;25606;42.686;23.136;2022-11-12T02:41:09;14.90;;;10.87;;
8281;SDS011;25606;42.686;23.136;2022-11-12T02:43:36;17.90;;;11.80;;
8281;SDS011;25606;42.686;23.136;2022-11-12T02:46:04;20.40;;;10.70;;
8281;SDS011;25606;42.686;23.136;2022-11-12T02:48:31;15.87;;;11.03;;
8281;SDS011;25606;42.686;23.136;2022-11-12T02:50:58;15.53;;;10.20;;
8281;SDS011;25606;42.686;23.136;2022-11-12T02:53:26;14.30;;;10.10;;
8281;SDS011;25606;42.686;23.136;2022-11-12T02:55:55;15.17;;;10.10;;
8281;SDS011;25606;42.686;23.136;2022-11-12T02:58:22;14.27;;;9.77;;
8281;SDS011;25606;42.686;23.136;2022-11-12T03:00:49;16.63;;;10.30;;
8281;SDS011;25606;42.686;23.136;2022-11-12T03:03:16;17.10;;;10.63;;
8281;SDS011;25606;42.686;23.136;2022-11-12T03:05:44;14.23;;;10.27;;
8281;SDS011;25606;42.686;23.136;2022-11-12T03:08:12;16.17;;;10.67;;
8281;SDS011;25606;42.686;23.136;2022-11-12T03:10:39;14.60;;;9.60;;
8281;SDS011;25606;42.686;23.136;2022-11-12T03:13:08;17.07;;;10.30;;
8281;SDS011;25606;42.686;23.136;2022-11-12T03:15:35;13.60;;;10.00;;
8281;SDS011;25606;42.686;23.136;2022-11-12T03:18:03;17.50;;;10.33;;
8281;SDS011;25606;42.686;23.136;2022-11-12T03:20:30;13.70;;;10.13;;
8281;SDS011;25606;42.686;23.136;2022-11-12T03:22:59;12.70;;;9.07;;
8281;SDS011;25606;42.686;23.136;2022-11-12T03:25:27;14.20;;;9.37;;
8281;SDS011;25606;42.686;23.136;2022-11-12T03:27:55;11.83;;;9.00;;
8281;SDS011;25606;42.686;23.136;2022-11-12T03:30:25;13.77;;;9.23;;
8281;SDS011;25606;42.686;23.136;2022-11-12T03:32:53;13.33;;;9.27;;
8281;SDS011;25606;42.686;23.136;2022-11-12T03:35:20;13.50;;;9.47;;
8281;SDS011;25606;42.686;23.136;2022-11-12T03:37:48;15.30;;;9.83;;
8281;SDS011;25606;42.686;23.136;2022-11-12T03:40:15;14.20;;;9.67;;
8281;SDS011;25606;42.686;23.136;2022-11-12T03:42:43;13.50;;;9.60;;
8281;SDS011;25606;42.686;23.136;2022-11-12T03:45:11;14.23;;;9.27;;
8281;SDS011;25606;42.686;23.136;2022-11-12T03:47:42;14.07;;;9.47;;
8281;SDS011;25606;42.686;23.136;2022-11-12T03:50:09;14.80;;;9.73;;
8281;SDS011;25606;42.686;23.136;2022-11-12T03:52:37;11.93;;;8.50;;
8281;SDS011;25606;42.686;23.136;2022-11-12T03:55:04;13.67;;;9.67;;
8281;SDS011;25606;42.686;23.136;2022-11-12T03:57:32;12.63;;;8.63;;
8281;SDS011;25606;42.686;23.136;2022-11-12T03:59:59;10.37;;;8.47;;
8281;SDS011;25606;42.686;23.136;2022-11-12T04:02:26;13.27;;;8.73;;
8281;SDS011;25606;42.686;23.136;2022-11-12T04:04:55;14.13;;;9.93;;
8281;SDS011;25606;42.686;23.136;2022-11-12T04:07:40;14.77;;;9.03;;
8281;SDS011;25606;42.686;23.136;2022-11-12T04:10:25;13.57;;;9.47;;
8281;SDS011;25606;42.686;23.136;2022-11-12T04:12:54;13.40;;;9.10;;
8281;SDS011;25606;42.686;23.136;2022-11-12T04:15:38;15.20;;;9.30;;
8281;SDS011;25606;42.686;23.136;2022-11-12T04:18:06;11.87;;;8.20;;
8281;SDS011;25606;42.686;23.136;2022-11-12T04:20:52;11.70;;;8.17;;
8281;SDS011;25606;42.686;23.136;2022-11-12T04:23:38;9.83;;;7.97;;
8281;SDS011;25606;42.686;23.136;2022-11-12T04:26:06;10.20;;;8.17;;
8281;SDS011;25606;42.686;23.136;2022-11-12T04:28:47;11.07;;;7.87;;
8281;SDS011;25606;42.686;23.136;2022-11-12T04:31:28;11.67;;;7.70;;
8281;SDS011;25606;42.686;23.136;2022-11-12T04:33:56;9.97;;;7.23;;
8281;SDS011;25606;42.686;23.136;2022-11-12T04:36:45;9.23;;;6.93;;
8281;SDS011;25606;42.686;23.136;2022-11-12T04:39:12;11.97;;;8.13;;
8281;SDS011;25606;42.686;23.136;2022-11-12T04:41:39;12.13;;;8.30;;
8281;SDS011;25606;42.686;23.136;2022-11-12T04:44:24;10.13;;;7.50;;
8281;SDS011;25606;42.686;23.136;2022-11-12T04:47:09;10.93;;;7.90;;
8281;SDS011;25606;42.686;23.136;2022-11-12T04:49:36;10.37;;;7.97;;
8281;SDS011;25606;42.686;23.136;2022-11-12T04:52:05;13.33;;;8.97;;
8281;SDS011;25606;42.686;23.136;2022-11-12T04:54:33;10.33;;;7.57;;
8281;SDS011;25606;42.686;23.136;2022-11-12T04:57:00;9.70;;;7.40;;
8281;SDS011;25606;42.686;23.136;2022-11-12T04:59:27;9.93;;;7.77;;
8281;SDS011;25606;42.686;23.136;2022-11-12T05:01:55;12.60;;;8.33;;
8281;SDS011;25606;42.686;23.136;2022-11-12T05:04:22;9.13;;;6.97;;
8281;SDS011;25606;42.686;23.136;2022-11-12T05:06:51;10.83;;;7.50;;
8281;SDS011;25606;42.686;23.136;2022-11-12T05:09:21;11.27;;;7.23;;
8281;SDS011;25606;42.686;23.136;2022-11-12T05:11:49;10.37;;;6.73;;
8281;SDS011;25606;42.686;23.136;2022-11-12T05:14:19;8.67;;;6.80;;
8281;SDS011;25606;42.686;23.136;2022-11-12T05:16:47;11.40;;;7.10;;
8281;SDS011;25606;42.686;23.136;2022-11-12T05:19:14;8.10;;;6.13;;
8281;SDS011;25606;42.686;23.136;2022-11-12T05:21:42;8.00;;;6.50;;
8281;SDS011;25606;42.686;23.136;2022-11-12T05:24:28;10.47;;;6.80;;
8281;SDS011;25606;42.686;23.136;2022-11-12T05:26:56;8.30;;;6.30;;
8281;SDS011;25606;42.686;23.136;2022-11-12T05:29:23;9.70;;;6.73;;
8281;SDS011;25606;42.686;23.136;2022-11-12T05:31:50;7.47;;;5.97;;
8281;SDS011;25606;42.686;23.136;2022-11-12T05:34:17;9.97;;;6.87;;
8281;SDS011;25606;42.686;23.136;2022-11-12T05:36:45;9.17;;;6.70;;
8281;SDS011;25606;42.686;23.136;2022-11-12T05:39:12;11.60;;;6.63;;
8281;SDS011;25606;42.686;23.136;2022-11-12T05:41:41;7.50;;;5.93;;
8281;SDS011;25606;42.686;23.136;2022-11-12T05:44:08;10.07;;;6.27;;
8281;SDS011;25606;42.686;23.136;2022-11-12T05:46:35;8.00;;;6.53;;
8281;SDS011;25606;42.686;23.136;2022-11-12T05:49:03;8.73;;;5.97;;
8281;SDS011;25606;42.686;23.136;2022-11-12T05:51:30;7.83;;;6.17;;
8281;SDS011;25606;42.686;23.136;2022-11-12T05:53:57;8.67;;;5.90;;
8281;SDS011;25606;42.686;23.136;2022-11-12T05:56:25;7.70;;;6.03;;
8281;SDS011;25606;42.686;23.136;2022-11-12T05:58:54;8.17;;;6.00;;
8281;SDS011;25606;42.686;23.136;2022-11-12T06:01:21;6.60;;;5.20;;
8281;SDS011;25606;42.686;23.136;2022-11-12T06:03:48;11.13;;;7.37;;
8281;SDS011;25606;42.686;23.136;2022-11-12T06:06:16;9.47;;;7.13;;
8281;SDS011;25606;42.686;23.136;2022-11-12T06:08:43;10.17;;;7.17;;
8281;SDS011;25606;42.686;23.136;2022-11-12T06:11:10;8.60;;;6.07;;
8281;SDS011;25606;42.686;23.136;2022-11-12T06:13:38;7.57;;;6.43;;
8281;SDS011;25606;42.686;23.136;2022-11-12T06:16:07;7.83;;;6.17;;
8281;SDS011;25606;42.686;23.136;2022-11-12T06:18:34;8.47;;;6.73;;
8281;SDS011;25606;42.686;23.136;2022-11-12T06:21:02;8.37;;;6.63;;
8281;SDS011;25606;42.686;23.136;2022-11-12T06:23:46;11.67;;;6.87;;
8281;SDS011;25606;42.686;23.136;2022-11-12T06:26:14;8.43;;;7.00;;
8281;SDS011;25606;42.686;23.136;2022-11-12T06:28:41;8.53;;;7.57;;
8281;SDS011;25606;42.686;23.136;2022-11-12T06:31:10;9.93;;;7.93;;
8281;SDS011;25606;42.686;23.136;2022-11-12T06:33:37;9.10;;;7.80;;
8281;SDS011;25606;42.686;23.136;2022-11-12T06:36:05;9.93;;;7.40;;
8281;SDS011;25606;42.686;23.136;2022-11-12T06:38:33;9.20;;;7.13;;
8281;SDS011;25606;42.686;23.136;2022-11-12T06:41:01;9.73;;;6.83;;
8281;SDS011;25606;42.686;23.136;2022-11-12T06:43:29;8.70;;;7.53;;
8281;SDS011;25606;42.686;23.136;2022-11-12T06:45:59;9.50;;;7.37;;
8281;SDS011;25606;42.686;23.136;2022-11-12T06:48:28;9.67;;;7.80;;
8281;SDS011;25606;42.686;23.136;2022-11-12T06:50:56;9.40;;;7.63;;
8281;SDS011;25606;42.686;23.136;2022-11-12T06:53:23;9.77;;;6.93;;
8281;SDS011;25606;42.686;23.136;2022-11-12T06:55:51;9.27;;;7.70;;
8281;SDS011;25606;42.686;23.136;2022-11-12T06:58:18;11.13;;;7.77;;
8281;SDS011;25606;42.686;23.136;2022-11-12T07:00:45;10.27;;;7.80;;
8281;SDS011;25606;42.686;23.136;2022-11-12T07:03:13;8.73;;;7.13;;
8281;SDS011;25606;42.686;23.136;2022-11-12T07:05:42;9.57;;;7.53;;
8281;SDS011;25606;42.686;23.136;2022-11-12T07:08:09;8.70;;;7.00;;
8281;SDS011;25606;42.686;23.136;2022-11-12T07:10:37;9.97;;;6.93;;
8281;SDS011;25606;42.686;23.136;2022-11-12T07:13:04;10.23;;;6.57;;
8281;SDS011;25606;42.686;23.136;2022-11-12T07:15:31;7.27;;;6.20;;
8281;SDS011;25606;42.686;23.136;2022-11-12T07:17:58;8.13;;;6.07;;
8281;SDS011;25606;42.686;23.136;2022-11-12T07:20:26;6.53;;;5.80;;
8281;SDS011;25606;42.686;23.136;2022-11-12T07:22:54;6.07;;;5.50;;
8281;SDS011;25606;42.686;23.136;2022-11-12T07:25:25;5.80;;;5.20;;
8281;SDS011;25606;42.686;23.136;2022-11-12T07:27:52;6.33;;;5.50;;
8281;SDS011;25606;42.686;23.136;2022-11-12T07:30:20;6.83;;;5.37;;
8281;SDS011;25606;42.686;23.136;2022-11-12T07:32:47;7.70;;;5.10;;
8281;SDS011;25606;42.686;23.136;2022-11-12T07:35:14;5.50;;;4.83;;
8281;SDS011;25606;42.686;23.136;2022-11-12T07:37:42;6.10;;;5.03;;
8281;SDS011;25606;42.686;23.136;2022-11-12T07:40:11;8.70;;;5.57;;
8281;SDS011;25606;42.686;23.136;2022-11-12T07:42:39;4.93;;;4.43;;
8281;SDS011;25606;42.686;23.136;2022-11-12T07:45:06;5.83;;;4.87;;
8281;SDS011;25606;42.686;23.136;2022-11-12T07:47:33;7.00;;;5.23;;
8281;SDS011;25606;42.686;23.136;2022-11-12T07:50:01;6.30;;;5.20;;
8281;SDS011;25606;42.686;23.136;2022-11-12T07:52:28;5.80;;;5.00;;
8281;SDS011;25606;42.686;23.136;2022-11-12T07:54:57;7.20;;;5.97;;
8281;SDS011;25606;42.686;23.136;2022-11-12T07:57:26;5.60;;;5.00;;
8281;SDS011;25606;42.686;23.136;2022-11-12T07:59:53;5.87;;;4.40;;
8281;SDS011;25606;42.686;23.136;2022-11-12T08:02:21;5.70;;;4.97;;
8281;SDS011;25606;42.686;23.136;2022-11-12T08:04:48;5.77;;;4.80;;
8281;SDS011;25606;42.686;23.136;2022-11-12T08:07:15;5.90;;;5.10;;
8281;SDS011;25606;42.686;23.136;2022-11-12T08:09:42;5.83;;;4.73;;
8281;SDS011;25606;42.686;23.136;2022-11-12T08:12:09;5.33;;;4.77;;
8281;SDS011;25606;42.686;23.136;2022-11-12T08:14:38;5.13;;;4.63;;
8281;SDS011;25606;42.686;23.136;2022-11-12T08:17:05;5.07;;;4.40;;
8281;SDS011;25606;42.686;23.136;2022-11-12T08:19:33;7.73;;;5.27;;
8281;SDS011;25606;42.686;23.136;2022-11-12T08:22:00;5.90;;;4.50;;
8281;SDS011;25606;42.686;23.136;2022-11-12T08:24:27;6.47;;;4.90;;
8281;SDS011;25606;42.686;23.136;2022-11-12T08:26:54;6.60;;;5.80;;
8281;SDS011;25606;42.686;23.136;2022-11-12T08:29:22;5.87;;;4.60;;
8281;SDS011;25606;42.686;23.136;2022-11-12T08:31:50;10.70;;;8.43;;
8281;SDS011;25606;42.686;23.136;2022-11-12T08:34:17;9.67;;;5.47;;
8281;SDS011;25606;42.686;23.136;2022-11-12T08:36:45;8.50;;;5.30;;
8281;SDS011;25606;42.686;23.136;2022-11-12T08:39:12;8.10;;;5.90;;
8281;SDS011;25606;42.686;23.136;2022-11-12T08:41:39;6.60;;;5.00;;
8281;SDS011;25606;42.686;23.136;2022-11-12T08:44:07;5.37;;;4.87;;
8281;SDS011;25606;42.686;23.136;2022-11-12T08:46:34;6.23;;;4.47;;
8281;SDS011;25606;42.686;23.136;2022-11-12T08:49:03;5.07;;;4.30;;
8281;SDS011;25606;42.686;23.136;2022-11-12T08:51:30;6.97;;;4.80;;
8281;SDS011;25606;42.686;23.136;2022-11-12T08:53:57;5.07;;;4.50;;
8281;SDS011;25606;42.686;23.136;2022-11-12T08:56:25;5.00;;;4.50;;
8281;SDS011;25606;42.686;23.136;2022-11-12T08:58:52;4.30;;;3.90;;
8281;SDS011;25606;42.686;23.136;2022-11-12T09:01:19;5.13;;;4.23;;
8281;SDS011;25606;42.686;23.136;2022-11-12T09:03:47;7.33;;;4.07;;
8281;SDS011;25606;42.686;23.136;2022-11-12T09:06:16;5.03;;;3.60;;
8281;SDS011;25606;42.686;23.136;2022-11-12T09:08:43;4.47;;;3.67;;
8281;SDS011;25606;42.686;23.136;2022-11-12T09:11:11;5.07;;;3.73;;
8281;SDS011;25606;42.686;23.136;2022-11-12T09:13:38;5.40;;;4.03;;
8281;SDS011;25606;42.686;23.136;2022-11-12T09:16:06;4.50;;;4.10;;
8281;SDS011;25606;42.686;23.136;2022-11-12T09:18:33;4.50;;;4.10;;
8281;SDS011;25606;42.686;23.136;2022-11-12T09:21:02;4.73;;;3.90;;
8281;SDS011;25606;42.686;23.136;2022-11-12T09:23:32;4.30;;;3.70;;
8281;SDS011;25606;42.686;23.136;2022-11-12T09:25:59;5.60;;;4.93;;
8281;SDS011;25606;42.686;23.136;2022-11-12T09:28:27;5.53;;;4.10;;
8281;SDS011;25606;42.686;23.136;2022-11-12T09:30:54;4.23;;;3.77;;
8281;SDS011;25606;42.686;23.136;2022-11-12T09:33:22;4.57;;;3.80;;
8281;SDS011;25606;42.686;23.136;2022-11-12T09:35:50;3.80;;;3.50;;
8281;SDS011;25606;42.686;23.136;2022-11-12T09:38:18;4.77;;;3.60;;
8281;SDS011;25606;42.686;23.136;2022-11-12T09:40:52;4.03;;;3.40;;
8281;SDS011;25606;42.686;23.136;2022-11-12T09:43:22;4.93;;;3.93;;
8281;SDS011;25606;42.686;23.136;2022-11-12T09:45:52;4.00;;;3.60;;
8281;SDS011;25606;42.686;23.136;2022-11-12T09:48:20;5.77;;;3.87;;
8281;SDS011;25606;42.686;23.136;2022-11-12T09:50:51;4.60;;;3.83;;
8281;SDS011;25606;42.686;23.136;2022-11-12T09:53:21;4.67;;;3.40;;
8281;SDS011;25606;42.686;23.136;2022-11-12T09:55:52;4.57;;;3.87;;
8281;SDS011;25606;42.686;23.136;2022-11-12T09:58:19;4.17;;;3.53;;
8281;SDS011;25606;42.686;23.136;2022-11-12T10:00:50;4.43;;;3.60;;
8281;SDS011;25606;42.686;23.136;2022-11-12T10:03:22;5.20;;;4.50;;
8281;SDS011;25606;42.686;23.136;2022-11-12T10:05:51;4.23;;;3.83;;
8281;SDS011;25606;42.686;23.136;2022-11-12T10:08:25;5.80;;;4.13;;
8281;SDS011;25606;42.686;23.136;2022-11-12T10:10:57;5.70;;;4.27;;
8281;SDS011;25606;42.686;23.136;2022-11-12T10:13:31;4.90;;;4.17;;
8281;SDS011;25606;42.686;23.136;2022-11-12T10:16:06;7.33;;;4.10;;
8281;SDS011;25606;42.686;23.136;2022-11-12T10:19:06;4.03;;;3.63;;
8281;SDS011;25606;42.686;23.136;2022-11-12T10:21:40;4.43;;;3.77;;
8281;SDS011;25606;42.686;23.136;2022-11-12T10:24:10;3.80;;;3.43;;
8281;SDS011;25606;42.686;23.136;2022-11-12T10:26:39;4.60;;;4.03;;
8281;SDS011;25606;42.686;23.136;2022-11-12T10:29:11;10.40;;;4.40;;
8281;SDS011;25606;42.686;23.136;2022-11-12T10:31:39;5.47;;;4.43;;
8281;SDS011;25606;42.686;23.136;2022-11-12T10:34:16;4.97;;;3.60;;
8281;SDS011;25606;42.686;23.136;2022-11-12T10:36:44;4.43;;;4.03;;
8281;SDS011;25606;42.686;23.136;2022-11-12T10:39:29;4.50;;;3.87;;
8281;SDS011;25606;42.686;23.136;2022-11-12T10:42:02;4.10;;;3.63;;
8281;SDS011;25606;42.686;23.136;2022-11-12T10:44:30;4.47;;;3.47;;
8281;SDS011;25606;42.686;23.136;2022-11-12T10:47:11;5.37;;;3.73;;
8281;SDS011;25606;42.686;23.136;2022-11-12T10:49:42;5.70;;;3.93;;
8281;SDS011;25606;42.686;23.136;2022-11-12T10:52:19;5.97;;;4.00;;
8281;SDS011;25606;42.686;23.136;2022-11-12T10:54:46;5.43;;;3.77;;
8281;SDS011;25606;42.686;23.136;2022-11-12T10:57:22;5.10;;;4.00;;
8281;SDS011;25606;42.686;23.136;2022-11-12T11:00:02;4.80;;;4.30;;
8281;SDS011;25606;42.686;23.136;2022-11-12T11:02:31;6.23;;;4.23;;
8281;SDS011;25606;42.686;23.136;2022-11-12T11:04:59;5.13;;;4.07;;
8281;SDS011;25606;42.686;23.136;2022-11-12T11:07:26;5.80;;;4.50;;
8281;SDS011;25606;42.686;23.136;2022-11-12T11:09:54;5.07;;;4.47;;
8281;SDS011;25606;42.686;23.136;2022-11-12T11:12:23;5.57;;;3.90;;
8281;SDS011;25606;42.686;23.136;2022-11-12T11:15:04;5.17;;;3.97;;
8281;SDS011;25606;42.686;23.136;2022-11-12T11:17:31;4.17;;;3.60;;
8281;SDS011;25606;42.686;23.136;2022-11-12T11:20:00;3.80;;;3.37;;
8281;SDS011;25606;42.686;23.136;2022-11-12T11:22:29;5.50;;;3.93;;
8281;SDS011;25606;42.686;23.136;2022-11-12T11:25:14;4.97;;;3.73;;
8281;SDS011;25606;42.686;23.136;2022-11-12T11:27:48;3.90;;;3.47;;
8281;SDS011;25606;42.686;23.136;2022-11-12T11:30:17;5.23;;;3.93;;
8281;SDS011;25606;42.686;23.136;2022-11-12T11:35:48;5.03;;;4.23;;
8281;SDS011;25606;42.686;23.136;2022-11-12T11:38:20;4.30;;;3.90;;
8281;SDS011;25606;42.686;23.136;2022-11-12T11:40:54;4.40;;;3.67;;
8281;SDS011;25606;42.686;23.136;2022-11-12T11:43:31;5.93;;;4.00;;
8281;SDS011;25606;42.686;23.136;2022-11-12T11:46:06;4.30;;;3.90;;
8281;SDS011;25606;42.686;23.136;2022-11-12T11:48:39;4.97;;;4.30;;
8281;SDS011;25606;42.686;23.136;2022-11-12T11:51:13;8.23;;;5.23;;
8281;SDS011;25606;42.686;23.136;2022-11-12T11:53:46;5.33;;;4.57;;
8281;SDS011;25606;42.686;23.136;2022-11-12T11:56:18;5.60;;;4.20;;
8281;SDS011;25606;42.686;23.136;2022-11-12T11:58:55;6.13;;;5.47;;
8281;SDS011;25606;42.686;23.136;2022-11-12T12:01:25;7.57;;;5.73;;
8281;SDS011;25606;42.686;23.136;2022-11-12T12:04:01;7.67;;;4.80;;
8281;SDS011;25606;42.686;23.136;2022-11-12T12:06:34;12.07;;;8.43;;
8281;SDS011;25606;42.686;23.136;2022-11-12T12:09:06;4.60;;;4.13;;
8281;SDS011;25606;42.686;23.136;2022-11-12T12:11:38;6.20;;;5.13;;
8281;SDS011;25606;42.686;23.136;2022-11-12T12:14:14;5.30;;;4.80;;
8281;SDS011;25606;42.686;23.136;2022-11-12T12:16:51;6.77;;;5.00;;
8281;SDS011;25606;42.686;23.136;2022-11-12T12:19:27;4.07;;;3.57;;
8281;SDS011;25606;42.686;23.136;2022-11-12T12:21:58;8.30;;;5.53;;
8281;SDS011;25606;42.686;23.136;2022-11-12T12:24:27;8.53;;;6.70;;
8281;SDS011;25606;42.686;23.136;2022-11-12T12:26:56;8.63;;;7.10;;
8281;SDS011;25606;42.686;23.136;2022-11-12T12:29:29;11.13;;;7.23;;
8281;SDS011;25606;42.686;23.136;2022-11-12T12:32:00;7.10;;;5.97;;
8281;SDS011;25606;42.686;23.136;2022-11-12T12:34:30;6.53;;;5.43;;
8281;SDS011;25606;42.686;23.136;2022-11-12T12:37:00;5.97;;;5.40;;
8281;SDS011;25606;42.686;23.136;2022-11-12T12:39:31;5.67;;;4.93;;
8281;SDS011;25606;42.686;23.136;2022-11-12T12:42:02;5.43;;;4.93;;
8281;SDS011;25606;42.686;23.136;2022-11-12T12:44:35;6.50;;;4.47;;
8281;SDS011;25606;42.686;23.136;2022-11-12T12:47:23;7.57;;;4.93;;
8281;SDS011;25606;42.686;23.136;2022-11-12T12:49:50;6.20;;;5.60;;
8281;SDS011;25606;42.686;23.136;2022-11-12T12:52:18;5.53;;;5.03;;
8281;SDS011;25606;42.686;23.136;2022-11-12T12:54:55;7.20;;;6.50;;
8281;SDS011;25606;42.686;23.136;2022-11-12T12:57:27;4.63;;;4.13;;
8281;SDS011;25606;42.686;23.136;2022-11-12T13:02:44;12.13;;;8.60;;
8281;SDS011;25606;42.686;23.136;2022-11-12T13:05:22;10.60;;;8.47;;
8281;SDS011;25606;42.686;23.136;2022-11-12T13:07:49;5.73;;;4.33;;
8281;SDS011;25606;42.686;23.136;2022-11-12T13:13:23;3.93;;;3.53;;
8281;SDS011;25606;42.686;23.136;2022-11-12T13:15:51;5.00;;;4.50;;
8281;SDS011;25606;42.686;23.136;2022-11-12T13:21:09;5.43;;;4.83;;
8281;SDS011;25606;42.686;23.136;2022-11-12T13:23:41;5.60;;;4.63;;
8281;SDS011;25606;42.686;23.136;2022-11-12T13:26:40;4.90;;;4.17;;
8281;SDS011;25606;42.686;23.136;2022-11-12T13:34:45;5.97;;;4.37;;
8281;SDS011;25606;42.686;23.136;2022-11-12T13:37:17;5.87;;;4.77;;
8281;SDS011;25606;42.686;23.136;2022-11-12T13:39:45;10.90;;;9.80;;
8281;SDS011;25606;42.686;23.136;2022-11-12T13:42:13;5.77;;;4.30;;
8281;SDS011;25606;42.686;23.136;2022-11-12T13:44:59;6.03;;;5.37;;
8281;SDS011;25606;42.686;23.136;2022-11-12T13:47:26;8.90;;;7.77;;
8281;SDS011;25606;42.686;23.136;2022-11-12T13:49:54;6.67;;;5.40;;
8281;SDS011;25606;42.686;23.136;2022-11-12T13:52:23;6.67;;;6.07;;
8281;SDS011;25606;42.686;23.136;2022-11-12T13:54:59;6.87;;;5.77;;
8281;SDS011;25606;42.686;23.136;2022-11-12T13:57:28;7.13;;;5.13;;
8281;SDS011;25606;42.686;23.136;2022-11-12T14:00:09;7.67;;;5.53;;
8281;SDS011;25606;42.686;23.136;2022-11-12T14:02:46;8.13;;;5.33;;
8281;SDS011;25606;42.686;23.136;2022-11-12T14:05:16;8.77;;;6.33;;
8281;SDS011;25606;42.686;23.136;2022-11-12T14:07:48;7.67;;;5.70;;
8281;SDS011;25606;42.686;23.136;2022-11-12T14:10:20;7.57;;;5.50;;
8281;SDS011;25606;42.686;23.136;2022-11-12T14:12:59;7.23;;;6.23;;
8281;SDS011;25606;42.686;23.136;2022-11-12T14:15:33;9.00;;;8.00;;
8281;SDS011;25606;42.686;23.136;2022-11-12T14:18:05;8.97;;;7.20;;
8281;SDS011;25606;42.686;23.136;2022-11-12T14:20:35;8.23;;;7.30;;
8281;SDS011;25606;42.686;23.136;2022-11-12T14:23:06;14.77;;;12.17;;
8281;SDS011;25606;42.686;23.136;2022-11-12T14:25:34;20.87;;;16.23;;
8281;SDS011;25606;42.686;23.136;2022-11-12T14:28:21;15.43;;;11.47;;
8281;SDS011;25606;42.686;23.136;2022-11-12T14:30:49;21.67;;;15.13;;
8281;SDS011;25606;42.686;23.136;2022-11-12T14:33:17;15.00;;;12.17;;
8281;SDS011;25606;42.686;23.136;2022-11-12T14:35:45;21.83;;;17.10;;
8281;SDS011;25606;42.686;23.136;2022-11-12T14:38:15;17.73;;;12.80;;
8281;SDS011;25606;42.686;23.136;2022-11-12T14:40:45;18.20;;;15.00;;
8281;SDS011;25606;42.686;23.136;2022-11-12T14:43:17;19.00;;;13.50;;
8281;SDS011;25606;42.686;23.136;2022-11-12T14:45:46;13.60;;;10.57;;
8281;SDS011;25606;42.686;23.136;2022-11-12T14:48:13;16.57;;;12.90;;
8281;SDS011;25606;42.686;23.136;2022-11-12T14:50:41;24.27;;;18.53;;
8281;SDS011;25606;42.686;23.136;2022-11-12T14:53:11;11.90;;;9.70;;
8281;SDS011;25606;42.686;23.136;2022-11-12T14:55:42;18.53;;;16.63;;
8281;SDS011;25606;42.686;23.136;2022-11-12T14:58:14;14.67;;;10.97;;
8281;SDS011;25606;42.686;23.136;2022-11-12T15:00:42;9.87;;;8.00;;
8281;SDS011;25606;42.686;23.136;2022-11-12T15:03:13;8.23;;;6.87;;
8281;SDS011;25606;42.686;23.136;2022-11-12T15:08:31;7.90;;;6.53;;
8281;SDS011;25606;42.686;23.136;2022-11-12T15:11:15;7.13;;;6.23;;
8281;SDS011;25606;42.686;23.136;2022-11-12T15:13:43;9.53;;;5.70;;
8281;SDS011;25606;42.686;23.136;2022-11-12T15:16:15;7.47;;;5.50;;